»·PEaware :: N524ML KMTH-MYBS

N524ML :: KMTH-MYBS

FLIGHT INFORMATION

Flight Status: Arrived
Operator: Privately registered:
United States
More flights under this callsign
Pilot: Max L. (14194)
Aircraft: PIPER PA-28 CHEROKEE ARCHER
(P28A)
More flights by this aircraft type
Origin: KMTH Florida Keys Marathon
United States
Destination: MYBS South Bimini
Bahamas
More flights between these airports :: More routes between these airports
Route: MTH ZBV
File this flight plan on PilotEdge
Remarks: INTERNATIONAL FLIGHT - CROSSING U.S. ADIZ
Altitude:
(Current/Filed)
3,500ft
Speed:
(Current/Filed)
120kts
Departed: 26-Aug-17 07:28 PM
Arrived: 26-Aug-17 08:26 PM
Distance/Time
Traveled:
113nm/0:58
Distance/Time
To Go:
Arrived

Flight Plot

Page will automatically refresh every two minutes.

Flight plan parsing failed; only flown route is shown


Map Options




Map Legend


Flown Route
Filed Route
Departure Airport
Arrival Airport
Navaid (VOR, NDB)
Fix

Horizontal Profiles

Position Reports

Time Latitude Longitude Heading Altitude Ground
Speed
26-Aug-17 19:26 24.727305 -81.045065 336 4ft 0kts
26-Aug-17 19:27 24.727305 -81.045065 336 4ft 0kts
26-Aug-17 19:28 24.727305 -81.045065 336 4ft 0kts
26-Aug-17 19:29 24.728112 -81.044680 64 4ft 15kts
26-Aug-17 19:30 24.728387 -81.044403 359 3ft 0kts
26-Aug-17 19:31 24.728387 -81.044403 359 3ft 0kts
26-Aug-17 19:32 24.726352 -81.050791 252 136ft 78kts
26-Aug-17 19:33 24.730055 -81.070539 4 1188ft 98kts
26-Aug-17 19:34 24.739855 -81.042538 82 2185ft 115kts
26-Aug-17 19:35 24.737225 -81.008449 85 3221ft 119kts
26-Aug-17 19:36 24.743019 -80.969314 76 3539ft 144kts
26-Aug-17 19:37 24.758939 -80.928837 57 3486ft 146kts
26-Aug-17 19:38 24.779285 -80.891833 57 3478ft 140kts
26-Aug-17 19:39 24.797851 -80.854127 63 3484ft 142kts
26-Aug-17 19:40 24.815019 -80.815173 63 3491ft 142kts
26-Aug-17 19:41 24.832024 -80.775907 60 3506ft 144kts
26-Aug-17 19:42 24.851873 -80.738561 57 3476ft 140kts
26-Aug-17 19:43 24.871846 -80.701194 57 3476ft 138kts
26-Aug-17 19:44 24.891778 -80.663949 57 3477ft 142kts
26-Aug-17 19:45 24.912057 -80.626106 57 3486ft 144kts
26-Aug-17 19:46 24.932521 -80.587982 57 3482ft 140kts
26-Aug-17 19:47 24.946758 -80.561405 57 3485ft 137kts
26-Aug-17 19:48 24.964012 -80.530319 57 3430ft 131kts
26-Aug-17 19:49 24.983425 -80.495835 57 3426ft 132kts
26-Aug-17 19:50 25.002532 -80.461945 57 3425ft 126kts
26-Aug-17 19:51 25.021719 -80.427897 57 3427ft 132kts
26-Aug-17 19:52 25.040309 -80.394974 57 3428ft 127kts
26-Aug-17 19:53 25.058734 -80.362401 57 3426ft 124kts
26-Aug-17 19:54 25.076954 -80.330198 58 3438ft 125kts
26-Aug-17 19:55 25.095505 -80.297431 58 3427ft 125kts
26-Aug-17 19:56 25.113903 -80.265128 57 3426ft 124kts
26-Aug-17 19:57 25.132665 -80.232043 58 3427ft 126kts
26-Aug-17 19:58 25.151321 -80.199184 58 3428ft 128kts
26-Aug-17 19:59 25.170327 -80.165720 57 3440ft 130kts
26-Aug-17 20:00 25.189475 -80.132038 57 3467ft 130kts
26-Aug-17 20:01 25.208421 -80.098737 57 3436ft 126kts
26-Aug-17 20:02 25.227268 -80.065631 57 3424ft 127kts
26-Aug-17 20:03 25.246047 -80.032671 57 3432ft 128kts
26-Aug-17 20:04 25.264729 -79.999905 57 3426ft 125kts
26-Aug-17 20:05 25.283334 -79.967298 57 3427ft 125kts
26-Aug-17 20:06 25.304673 -79.937378 49 3443ft 126kts
26-Aug-17 20:07 25.327308 -79.907844 49 3426ft 125kts
26-Aug-17 20:08 25.350190 -79.877994 49 3460ft 128kts
26-Aug-17 20:09 25.371069 -79.845802 56 3431ft 126kts
26-Aug-17 20:10 25.390402 -79.813297 56 3436ft 126kts
26-Aug-17 20:11 25.409863 -79.780599 56 3449ft 130kts
26-Aug-17 20:12 25.429534 -79.747573 56 3429ft 126kts
26-Aug-17 20:13 25.449065 -79.714801 56 3427ft 128kts
26-Aug-17 20:14 25.468559 -79.682116 56 3470ft 129kts
26-Aug-17 20:15 25.488189 -79.649223 56 3428ft 126kts
26-Aug-17 20:16 25.507486 -79.616910 56 3428ft 125kts
26-Aug-17 20:17 25.526805 -79.584578 56 3427ft 125kts
26-Aug-17 20:18 25.546083 -79.552337 56 3434ft 125kts
26-Aug-17 20:19 25.563964 -79.522451 56 3426ft 125kts
26-Aug-17 20:20 25.582548 -79.491410 56 3428ft 127kts
26-Aug-17 20:21 25.601889 -79.459128 56 3426ft 125kts
26-Aug-17 20:22 25.621475 -79.426454 56 3428ft 127kts
26-Aug-17 20:23 25.638229 -79.393677 61 2932ft 115kts
26-Aug-17 20:24 25.651928 -79.360934 67 2439ft 119kts
26-Aug-17 20:25 25.666234 -79.327828 63 1859ft 117kts
26-Aug-17 20:26 25.680697 -79.296560 62 1309ft 97kts
26-Aug-17 20:27 25.687226 -79.269948 88 848ft 83kts
26-Aug-17 20:28 25.693917 -79.249484 356 425ft 72kts
26-Aug-17 20:29 25.699959 -79.266335 269 33ft 46kts
26-Aug-17 20:30 25.700824 -79.272642 53 33ft 2kts
26-Aug-17 20:31 25.701306 -79.272540 276 33ft 0kts
26-Aug-17 20:32 25.701306 -79.272539 276 33ft 0kts
26-Aug-17 20:33 25.701306 -79.272539 276 33ft 0kts
26-Aug-17 20:34 25.701306 -79.272539 276 33ft 0kts
26-Aug-17 20:35 25.701306 -79.272539 276 33ft 0kts
26-Aug-17 20:36 25.697307 -79.250166 333 352ft 69kts
26-Aug-17 20:37 25.699963 -79.268677 269 33ft 40kts
26-Aug-17 20:38 25.700906 -79.272559 46 33ft 5kts
26-Aug-17 20:39 25.700911 -79.272468 105 33ft 6kts

Navigation Log

Ident Type
Flight plan parsing failed, navigation log unavailable